Time;durP1;ratioP1;P1;durP2;ratioP2;P2;SDS_P1;SDS_P2;PMS_P1;PMS_P2;Temp;Humidity;BMP_temperature;BMP_pressure;BME280_temperature;BME280_humidity;BME280_pressure;Samples;Min_cycle;Max_cycle;Signal;HPM_P1;HPM_P2
2022/01/19 00:01:35;;;;;;;21.27;8.93;;;;;;;;;;5048636;28;20052;-70
2022/01/19 00:04:01;;;;;;;21.98;8.77;;;;;;;;;;5046681;28;20043;-69
2022/01/19 00:06:27;;;;;;;25.67;9.48;;;;;;;;;;5047945;28;20475;-70
2022/01/19 00:08:52;;;;;;;22.08;9.27;;;;;;;;;;5046194;28;20060;-69
2022/01/19 00:11:19;;;;;;;28.05;10.77;;;;;;;;;;5045012;28;20039;-70
2022/01/19 00:13:44;;;;;;;25.42;9.93;;;;;;;;;;5047821;28;20095;-70
2022/01/19 00:16:09;;;;;;;22.35;9.48;;;;;;;;;;5050135;28;20049;-69
2022/01/19 00:18:35;;;;;;;23.98;10.60;;;;;;;;;;5045155;28;20040;-69
2022/01/19 00:21:00;;;;;;;24.05;9.60;;;;;;;;;;5037557;28;20029;-69
2022/01/19 00:23:26;;;;;;;25.48;10.15;;;;;;;;;;5032064;28;20045;-69
2022/01/19 00:25:56;;;;;;;23.13;9.38;;;;;;;;;;5041944;28;20042;-69
2022/01/19 00:28:23;;;;;;;23.60;9.32;;;;;;;;;;5048405;28;20041;-69
2022/01/19 00:30:48;;;;;;;23.13;9.85;;;;;;;;;;5048167;28;20055;-70
2022/01/19 00:33:15;;;;;;;22.85;9.30;;;;;;;;;;5049171;28;20036;-69
2022/01/19 00:35:40;;;;;;;24.70;10.27;;;;;;;;;;5046256;28;20474;-69
2022/01/19 00:38:07;;;;;;;23.92;10.63;;;;;;;;;;5044000;28;20041;-69
2022/01/19 00:40:34;;;;;;;26.02;10.02;;;;;;;;;;5034587;28;20459;-69
2022/01/19 00:43:00;;;;;;;21.80;9.77;;;;;;;;;;5045269;28;20036;-70
2022/01/19 00:45:26;;;;;;;22.08;10.02;;;;;;;;;;5044926;28;20025;-69
2022/01/19 00:47:52;;;;;;;26.15;10.77;;;;;;;;;;5043206;28;20025;-69
2022/01/19 00:50:23;;;;;;;26.30;10.38;;;;;;;;;;5048486;28;20040;-69
2022/01/19 00:52:51;;;;;;;23.00;10.65;;;;;;;;;;5030265;28;20033;-69
2022/01/19 00:55:17;;;;;;;23.95;10.50;;;;;;;;;;5046981;28;20526;-70
2022/01/19 00:57:42;;;;;;;22.27;9.90;;;;;;;;;;5050831;28;20509;-69
2022/01/19 01:00:12;;;;;;;19.85;9.95;;;;;;;;;;5046693;28;20029;-69
2022/01/19 01:02:37;;;;;;;18.95;9.40;;;;;;;;;;5044255;28;20034;-69
2022/01/19 01:05:03;;;;;;;14.60;8.02;;;;;;;;;;5044325;28;20383;-69
2022/01/19 01:07:33;;;;;;;18.52;9.32;;;;;;;;;;5040503;28;20117;-69
2022/01/19 01:09:58;;;;;;;21.33;9.20;;;;;;;;;;5045856;28;20041;-69
2022/01/19 01:12:31;;;;;;;23.10;9.73;;;;;;;;;;5031492;28;20034;-69
2022/01/19 01:20:42;;;;;;;22.38;10.10;;;;;;;;;;5004104;28;20042;-69
2022/01/19 01:23:09;;;;;;;26.42;10.88;;;;;;;;;;5030148;28;20056;-69
2022/01/19 01:25:35;;;;;;;27.85;11.15;;;;;;;;;;5041808;28;20040;-69
2022/01/19 01:28:01;;;;;;;27.77;11.43;;;;;;;;;;5053402;28;20048;-69
2022/01/19 01:30:27;;;;;;;28.52;10.80;;;;;;;;;;5052423;28;20033;-69
2022/01/19 01:32:52;;;;;;;27.45;11.27;;;;;;;;;;5051236;28;20081;-69
2022/01/19 01:35:18;;;;;;;29.73;12.18;;;;;;;;;;5052222;28;20036;-69
2022/01/19 01:37:43;;;;;;;32.42;12.65;;;;;;;;;;5041660;28;20029;-69
2022/01/19 01:40:14;;;;;;;27.45;11.35;;;;;;;;;;5051948;28;20120;-69
2022/01/19 01:42:41;;;;;;;25.02;10.13;;;;;;;;;;5051004;28;20082;-69
2022/01/19 01:45:12;;;;;;;25.40;10.65;;;;;;;;;;5037439;28;20529;-68
2022/01/19 01:47:43;;;;;;;29.52;10.98;;;;;;;;;;5033242;28;20414;-68
2022/01/19 01:55:23;;;;;;;28.83;12.07;;;;;;;;;;5041306;28;20087;-69
2022/01/19 01:57:52;;;;;;;31.02;11.20;;;;;;;;;;5053316;28;20033;-68
2022/01/19 02:00:22;;;;;;;26.52;11.25;;;;;;;;;;5051986;28;20043;-68
2022/01/19 02:02:48;;;;;;;26.75;10.00;;;;;;;;;;5071831;28;20047;-68
2022/01/19 02:05:17;;;;;;;23.83;10.55;;;;;;;;;;5054860;28;20119;-69
2022/01/19 02:08:08;;;;;;;19.95;10.05;;;;;;;;;;5049526;28;20083;-69
2022/01/19 02:10:43;;;;;;;21.98;9.63;;;;;;;;;;5052263;28;20025;-69
2022/01/19 02:16:15;;;;;;;27.13;11.00;;;;;;;;;;5040873;28;20060;-69
2022/01/19 02:21:51;;;;;;;27.23;11.18;;;;;;;;;;5044755;28;20528;-68
2022/01/19 02:24:20;;;;;;;;;;;;;;;;;;5051485;28;20075;-68
2022/01/19 02:40:32;;;;;;;27.52;10.45;;;;;;;;;;5050707;28;20117;-68
2022/01/19 02:50:37;;;;;;;32.25;11.80;;;;;;;;;;5060638;28;20064;-68
2022/01/19 02:53:03;;;;;;;28.42;11.52;;;;;;;;;;5051206;28;20033;-67
2022/01/19 02:55:30;;;;;;;30.83;11.98;;;;;;;;;;5059774;28;20112;-68
2022/01/19 02:57:56;;;;;;;25.25;11.80;;;;;;;;;;5051094;28;20413;-68
2022/01/19 03:08:54;;;;;;;30.67;11.15;;;;;;;;;;5029710;28;20053;-68
2022/01/19 03:11:20;;;;;;;32.13;13.43;;;;;;;;;;5013742;28;20558;-68
2022/01/19 03:13:47;;;;;;;26.27;11.93;;;;;;;;;;5021697;28;20050;-68
2022/01/19 03:16:13;;;;;;;24.48;11.13;;;;;;;;;;5034772;28;20491;-68
2022/01/19 03:18:39;;;;;;;25.70;11.13;;;;;;;;;;5032856;28;20063;-68
2022/01/19 03:21:05;;;;;;;24.85;11.23;;;;;;;;;;5036578;28;20593;-68
2022/01/19 03:23:31;;;;;;;24.25;11.35;;;;;;;;;;5052941;28;20060;-68
2022/01/19 03:25:58;;;;;;;24.58;11.60;;;;;;;;;;5042521;28;20101;-68
2022/01/19 03:28:23;;;;;;;27.85;12.20;;;;;;;;;;5044072;28;20555;-68
2022/01/19 03:30:49;;;;;;;21.67;11.10;;;;;;;;;;5059734;28;20064;-68
2022/01/19 03:33:15;;;;;;;21.70;11.25;;;;;;;;;;5049674;28;20111;-69
2022/01/19 03:35:41;;;;;;;23.17;11.30;;;;;;;;;;5047913;28;20447;-68
2022/01/19 03:38:07;;;;;;;22.35;10.98;;;;;;;;;;5025892;28;20041;-68
2022/01/19 03:40:34;;;;;;;22.05;10.88;;;;;;;;;;5052396;28;20041;-69
2022/01/19 03:43:00;;;;;;;19.80;9.75;;;;;;;;;;5045491;28;20079;-68
2022/01/19 03:45:26;;;;;;;17.40;9.85;;;;;;;;;;5063258;28;20021;-69
2022/01/19 03:48:08;;;;;;;15.02;9.15;;;;;;;;;;5049119;28;20039;-69
2022/01/19 03:50:34;;;;;;;17.45;9.38;;;;;;;;;;5052033;28;20040;-69
2022/01/19 03:53:00;;;;;;;15.43;8.40;;;;;;;;;;5049787;28;20136;-70
2022/01/19 03:55:26;;;;;;;14.80;8.50;;;;;;;;;;5046429;28;20116;-69
2022/01/19 03:57:52;;;;;;;12.07;7.57;;;;;;;;;;5041932;28;20563;-69
2022/01/19 04:00:19;;;;;;;12.70;7.72;;;;;;;;;;5054323;28;20112;-70
2022/01/19 04:02:44;;;;;;;12.00;6.93;;;;;;;;;;5045015;28;20029;-69
2022/01/19 04:06:00;;;;;;;13.68;7.25;;;;;;;;;;5048618;28;20048;-70
2022/01/19 04:07:55;;;;;;;13.50;6.68;;;;;;;;;;5047059;28;20045;-69
2022/01/19 04:10:21;;;;;;;11.57;6.75;;;;;;;;;;5047179;28;20072;-70
2022/01/19 04:12:57;;;;;;;12.52;6.70;;;;;;;;;;5047673;28;20508;-69
2022/01/19 04:15:23;;;;;;;10.38;6.00;;;;;;;;;;5038930;28;20490;-69
2022/01/19 04:17:54;;;;;;;10.00;5.97;;;;;;;;;;5045423;28;21838;-69
2022/01/19 04:20:25;;;;;;;10.30;6.65;;;;;;;;;;5050352;28;20371;-69
2022/01/19 04:22:50;;;;;;;10.80;6.47;;;;;;;;;;5039453;28;20033;-69
2022/01/19 04:25:16;;;;;;;11.80;6.18;;;;;;;;;;5050756;28;20474;-70
2022/01/19 04:27:43;;;;;;;9.85;6.18;;;;;;;;;;5052281;28;20116;-70
2022/01/19 04:30:12;;;;;;;9.68;6.10;;;;;;;;;;5047575;28;20126;-70
2022/01/19 04:33:02;;;;;;;11.05;6.88;;;;;;;;;;5026200;28;20154;-69
2022/01/19 04:35:30;;;;;;;10.75;6.20;;;;;;;;;;5034984;28;20032;-70
2022/01/19 04:44:24;;;;;;;12.35;7.35;;;;;;;;;;5049042;28;20048;-70
2022/01/19 05:03:11;;;;;;;12.38;8.13;;;;;;;;;;5036537;28;20072;-70
2022/01/19 05:05:39;;;;;;;13.18;8.52;;;;;;;;;;5030591;28;20049;-70
2022/01/19 05:08:15;;;;;;;14.75;8.60;;;;;;;;;;5042619;28;20086;-70
2022/01/19 05:13:31;;;;;;;13.10;8.57;;;;;;;;;;5039901;28;20079;-70
2022/01/19 05:15:57;;;;;;;12.63;8.30;;;;;;;;;;5050255;28;20056;-70
2022/01/19 05:18:23;;;;;;;13.55;9.27;;;;;;;;;;5046824;28;20041;-70
2022/01/19 05:20:49;;;;;;;12.45;8.32;;;;;;;;;;5051378;28;20078;-70
2022/01/19 05:23:16;;;;;;;14.88;9.00;;;;;;;;;;5050260;28;20086;-69
2022/01/19 05:25:42;;;;;;;14.27;9.05;;;;;;;;;;5051290;28;20040;-70
2022/01/19 05:28:08;;;;;;;10.18;6.50;;;;;;;;;;5048577;28;20043;-70
2022/01/19 05:30:33;;;;;;;13.18;8.48;;;;;;;;;;5050201;28;20043;-70
2022/01/19 05:32:59;;;;;;;13.05;8.57;;;;;;;;;;5050171;28;20115;-70
2022/01/19 05:35:24;;;;;;;13.60;8.82;;;;;;;;;;5049916;28;20036;-71
2022/01/19 05:37:50;;;;;;;12.80;8.95;;;;;;;;;;5038172;28;20088;-70
2022/01/19 05:40:16;;;;;;;10.07;6.38;;;;;;;;;;5043245;28;20479;-70
2022/01/19 05:42:42;;;;;;;10.82;7.00;;;;;;;;;;5031248;28;20037;-70
2022/01/19 05:45:09;;;;;;;13.52;7.68;;;;;;;;;;5030714;28;20116;-70
2022/01/19 05:47:35;;;;;;;9.82;6.20;;;;;;;;;;5048093;28;20033;-70
2022/01/19 05:50:02;;;;;;;11.18;7.38;;;;;;;;;;5048339;28;20033;-69
2022/01/19 05:52:28;;;;;;;11.85;7.68;;;;;;;;;;5046291;28;20075;-67
2022/01/19 05:54:53;;;;;;;10.82;6.93;;;;;;;;;;5031732;28;20060;-67
2022/01/19 05:57:18;;;;;;;11.07;7.55;;;;;;;;;;5030006;28;20033;-61
2022/01/19 05:59:44;;;;;;;10.95;6.38;;;;;;;;;;5032087;28;20083;-62
2022/01/19 06:02:09;;;;;;;13.30;7.90;;;;;;;;;;5033330;28;20091;-61
2022/01/19 06:04:35;;;;;;;12.68;7.97;;;;;;;;;;5034726;28;20075;-61
2022/01/19 06:07:02;;;;;;;11.02;7.13;;;;;;;;;;5033815;28;20067;-61
2022/01/19 06:09:36;;;;;;;8.52;5.15;;;;;;;;;;5034954;28;20455;-61
2022/01/19 06:12:04;;;;;;;11.75;5.65;;;;;;;;;;5035893;28;20467;-61
2022/01/19 06:14:34;;;;;;;11.48;7.22;;;;;;;;;;5042523;28;20039;-64
2022/01/19 06:17:00;;;;;;;11.77;6.78;;;;;;;;;;5053585;28;20037;-64
2022/01/19 06:19:26;;;;;;;13.05;7.45;;;;;;;;;;5056964;28;20035;-65
2022/01/19 06:21:52;;;;;;;11.43;7.72;;;;;;;;;;5068568;28;20020;-64
2022/01/19 06:24:18;;;;;;;10.43;6.63;;;;;;;;;;5069328;28;20036;-65
2022/01/19 06:26:43;;;;;;;8.88;5.43;;;;;;;;;;5054004;28;20037;-66
2022/01/19 06:29:09;;;;;;;10.65;6.47;;;;;;;;;;5050208;28;20112;-66
2022/01/19 06:31:34;;;;;;;6.68;4.55;;;;;;;;;;5035194;28;20061;-64
2022/01/19 06:34:00;;;;;;;10.35;6.38;;;;;;;;;;5032741;28;20516;-65
2022/01/19 06:36:25;;;;;;;10.20;6.70;;;;;;;;;;5033940;28;20467;-65
2022/01/19 06:38:51;;;;;;;9.57;5.50;;;;;;;;;;5040806;28;20463;-65
2022/01/19 06:41:17;;;;;;;13.85;6.57;;;;;;;;;;5055939;28;20025;-65
2022/01/19 06:43:43;;;;;;;10.38;7.13;;;;;;;;;;5050100;28;20458;-66
2022/01/19 06:46:08;;;;;;;6.65;4.32;;;;;;;;;;5047148;28;20036;-66
2022/01/19 06:48:34;;;;;;;9.63;6.35;;;;;;;;;;5053418;28;20033;-65
2022/01/19 06:51:00;;;;;;;10.05;6.00;;;;;;;;;;5052581;28;20036;-66
2022/01/19 06:53:26;;;;;;;6.55;4.43;;;;;;;;;;5054486;28;20064;-65
2022/01/19 06:55:54;;;;;;;10.05;6.75;;;;;;;;;;5053727;28;20052;-65
2022/01/19 06:58:20;;;;;;;10.13;6.15;;;;;;;;;;5053260;28;20482;-65
2022/01/19 07:00:45;;;;;;;10.27;6.68;;;;;;;;;;5053610;28;20033;-65
2022/01/19 07:03:11;;;;;;;14.48;7.38;;;;;;;;;;5044807;28;20047;-66
2022/01/19 07:05:37;;;;;;;9.23;6.07;;;;;;;;;;5032648;28;20451;-67
2022/01/19 07:08:02;;;;;;;12.75;7.78;;;;;;;;;;5032679;28;20029;-65
2022/01/19 07:10:31;;;;;;;13.00;7.65;;;;;;;;;;5032825;28;20073;-64
2022/01/19 07:13:01;;;;;;;9.90;6.82;;;;;;;;;;5033042;28;20044;-65
2022/01/19 07:15:26;;;;;;;13.23;7.88;;;;;;;;;;5033238;28;20133;-72
2022/01/19 07:17:52;;;;;;;10.13;6.72;;;;;;;;;;5043382;28;20112;-68
2022/01/19 07:20:17;;;;;;;9.10;6.05;;;;;;;;;;5052174;28;20036;-67
2022/01/19 07:22:43;;;;;;;12.77;7.53;;;;;;;;;;5052667;28;20021;-67
2022/01/19 07:25:09;;;;;;;8.98;5.90;;;;;;;;;;5051720;28;20043;-67
2022/01/19 07:27:36;;;;;;;10.98;6.32;;;;;;;;;;5052972;28;20049;-67
2022/01/19 07:30:04;;;;;;;9.05;5.88;;;;;;;;;;5050902;28;20051;-67
2022/01/19 07:32:33;;;;;;;11.15;5.95;;;;;;;;;;5047536;28;20033;-67
2022/01/19 07:34:59;;;;;;;12.68;6.95;;;;;;;;;;5037351;28;20039;-68
2022/01/19 07:37:25;;;;;;;12.27;7.70;;;;;;;;;;5048276;28;20040;-67
2022/01/19 07:39:50;;;;;;;10.93;7.00;;;;;;;;;;5051605;28;20044;-68
2022/01/19 07:42:16;;;;;;;14.40;8.45;;;;;;;;;;5051396;28;20529;-67
2022/01/19 07:44:41;;;;;;;10.68;6.90;;;;;;;;;;5052511;28;20426;-67
2022/01/19 07:47:07;;;;;;;10.40;6.00;;;;;;;;;;5051702;28;20475;-68
2022/01/19 07:49:32;;;;;;;10.57;6.22;;;;;;;;;;5052647;28;20025;-65
2022/01/19 07:51:58;;;;;;;9.70;5.68;;;;;;;;;;5044439;28;20037;-66
2022/01/19 07:54:24;;;;;;;12.05;7.00;;;;;;;;;;5030520;28;20455;-66
2022/01/19 07:56:49;;;;;;;15.20;9.30;;;;;;;;;;5032217;28;20074;-67
2022/01/19 07:59:16;;;;;;;11.52;7.22;;;;;;;;;;5031926;28;20040;-68
2022/01/19 08:01:44;;;;;;;12.65;7.55;;;;;;;;;;5031303;28;20040;-67
2022/01/19 08:04:10;;;;;;;17.98;8.63;;;;;;;;;;5027272;28;20030;-67
2022/01/19 08:06:35;;;;;;;17.45;9.02;;;;;;;;;;5034358;28;20044;-67
2022/01/19 08:09:02;;;;;;;13.45;7.40;;;;;;;;;;5031945;28;20028;-66
2022/01/19 08:11:27;;;;;;;15.82;9.32;;;;;;;;;;5032452;28;20066;-66
2022/01/19 08:13:52;;;;;;;15.63;8.40;;;;;;;;;;5032265;28;20048;-66
2022/01/19 08:16:18;;;;;;;18.45;10.07;;;;;;;;;;5031573;28;20096;-67
2022/01/19 08:18:44;;;;;;;16.92;8.93;;;;;;;;;;5031899;28;20042;-66
2022/01/19 08:21:09;;;;;;;15.57;8.05;;;;;;;;;;5033213;28;20037;-67
2022/01/19 08:23:35;;;;;;;14.88;8.13;;;;;;;;;;5033963;28;20036;-66
2022/01/19 08:26:00;;;;;;;15.75;8.43;;;;;;;;;;5033644;28;20455;-67
2022/01/19 08:28:26;;;;;;;19.10;10.15;;;;;;;;;;5030741;28;20075;-67
2022/01/19 08:30:51;;;;;;;16.42;9.63;;;;;;;;;;5031939;28;20030;-67
2022/01/19 08:33:17;;;;;;;18.80;9.35;;;;;;;;;;5030933;28;20083;-67
2022/01/19 08:35:43;;;;;;;18.52;9.65;;;;;;;;;;5030350;28;20144;-66
2022/01/19 08:38:08;;;;;;;16.83;8.38;;;;;;;;;;5034852;28;20482;-67
2022/01/19 08:40:36;;;;;;;19.27;10.57;;;;;;;;;;5032015;28;20116;-66
2022/01/19 08:43:03;;;;;;;19.95;10.38;;;;;;;;;;5030191;28;20064;-68
2022/01/19 08:45:29;;;;;;;16.55;9.55;;;;;;;;;;5031899;28;20028;-67
2022/01/19 08:47:54;;;;;;;15.65;8.45;;;;;;;;;;5031784;28;20029;-66
2022/01/19 08:50:20;;;;;;;14.65;7.90;;;;;;;;;;5030805;28;20033;-67
2022/01/19 08:52:46;;;;;;;17.85;9.07;;;;;;;;;;5032888;28;20037;-67
2022/01/19 08:55:13;;;;;;;18.42;10.02;;;;;;;;;;5030882;28;20026;-67
2022/01/19 08:57:38;;;;;;;18.63;10.48;;;;;;;;;;5031792;28;20482;-65
2022/01/19 09:00:07;;;;;;;19.35;10.35;;;;;;;;;;5031235;28;20041;-67
2022/01/19 09:02:33;;;;;;;22.85;12.05;;;;;;;;;;5031108;28;20034;-67
2022/01/19 09:04:58;;;;;;;18.63;9.85;;;;;;;;;;5033912;28;20070;-63
2022/01/19 09:07:24;;;;;;;23.33;12.32;;;;;;;;;;5051298;28;20163;-63
2022/01/19 09:09:49;;;;;;;23.40;12.13;;;;;;;;;;5050366;28;20037;-63
2022/01/19 09:12:17;;;;;;;20.77;11.40;;;;;;;;;;5050179;28;20143;-63
2022/01/19 09:14:43;;;;;;;24.02;11.73;;;;;;;;;;5043110;28;20053;-66
2022/01/19 09:17:08;;;;;;;25.08;11.80;;;;;;;;;;5052394;28;20439;-65
2022/01/19 09:19:39;;;;;;;22.65;10.98;;;;;;;;;;5071009;28;20028;-64
2022/01/19 09:22:06;;;;;;;21.90;10.65;;;;;;;;;;5037696;28;20030;-63
2022/01/19 09:24:33;;;;;;;20.65;11.13;;;;;;;;;;5051204;28;20028;-65
2022/01/19 09:26:59;;;;;;;22.60;10.93;;;;;;;;;;5051299;28;20029;-65
2022/01/19 09:29:24;;;;;;;22.23;9.55;;;;;;;;;;5050379;28;20647;-65
2022/01/19 09:31:50;;;;;;;18.10;9.15;;;;;;;;;;5051947;28;20112;-66
2022/01/19 09:34:19;;;;;;;17.30;8.73;;;;;;;;;;5051953;28;20478;-70
2022/01/19 09:36:46;;;;;;;15.00;7.82;;;;;;;;;;5038362;28;20475;-68
2022/01/19 09:39:15;;;;;;;20.08;10.80;;;;;;;;;;5032948;28;20446;-69
2022/01/19 09:41:41;;;;;;;18.92;9.52;;;;;;;;;;5067079;28;20033;-70
2022/01/19 09:44:08;;;;;;;19.65;10.65;;;;;;;;;;5053851;28;20024;-70
2022/01/19 09:46:34;;;;;;;17.45;9.23;;;;;;;;;;5033722;28;20040;-70
2022/01/19 09:49:00;;;;;;;19.02;10.95;;;;;;;;;;5034707;28;20487;-69
2022/01/19 09:51:28;;;;;;;19.52;9.60;;;;;;;;;;5036508;28;20147;-69
2022/01/19 09:53:53;;;;;;;19.73;10.50;;;;;;;;;;5034274;28;20030;-70
2022/01/19 09:56:20;;;;;;;20.42;9.82;;;;;;;;;;5070744;28;20040;-70
2022/01/19 09:58:46;;;;;;;16.98;8.57;;;;;;;;;;5069042;28;20044;-73
2022/01/19 10:01:17;;;;;;;24.23;11.15;;;;;;;;;;5052543;28;20377;-72
2022/01/19 10:03:43;;;;;;;15.98;8.23;;;;;;;;;;5053720;28;20510;-71
2022/01/19 10:06:18;;;;;;;20.58;9.82;;;;;;;;;;5047897;28;20163;-71
2022/01/19 10:08:50;;;;;;;19.75;10.15;;;;;;;;;;5059143;28;20047;-72
2022/01/19 10:11:19;;;;;;;26.40;12.65;;;;;;;;;;5066186;28;20017;-70
2022/01/19 10:19:21;;;;;;;24.60;12.57;;;;;;;;;;5073289;28;20035;-72
2022/01/19 10:22:06;;;;;;;22.08;10.23;;;;;;;;;;5070985;28;20124;-71
2022/01/19 10:24:39;;;;;;;24.88;12.48;;;;;;;;;;5060290;28;20040;-73
2022/01/19 10:27:21;;;;;;;21.42;10.85;;;;;;;;;;5074059;28;20024;-70
2022/01/19 10:29:49;;;;;;;33.92;15.50;;;;;;;;;;5059798;28;20527;-76
2022/01/19 10:32:15;;;;;;;15.27;8.43;;;;;;;;;;5053522;28;20124;-70
2022/01/19 10:34:40;;;;;;;22.45;11.55;;;;;;;;;;5049997;28;20103;-71
2022/01/19 10:37:06;;;;;;;22.10;11.57;;;;;;;;;;5041878;28;20473;-68
2022/01/19 10:40:02;;;;;;;26.30;13.32;;;;;;;;;;5049922;28;20032;-74
2022/01/19 10:42:31;;;;;;;21.85;11.30;;;;;;;;;;5048747;28;20045;-73
2022/01/19 10:44:59;;;;;;;14.35;6.93;;;;;;;;;;5052539;28;20045;-71
2022/01/19 10:47:39;;;;;;;25.30;12.95;;;;;;;;;;5052656;28;20120;-72
2022/01/19 10:50:05;;;;;;;25.50;13.57;;;;;;;;;;5050492;28;20032;-71
2022/01/19 10:52:43;;;;;;;23.58;11.73;;;;;;;;;;5038804;28;20034;-66
2022/01/19 10:55:25;;;;;;;19.25;10.30;;;;;;;;;;5073083;28;20474;-67
2022/01/19 10:57:53;;;;;;;22.25;11.88;;;;;;;;;;5067594;28;20029;-70
2022/01/19 11:00:21;;;;;;;22.67;9.88;;;;;;;;;;5051318;28;20094;-71
2022/01/19 11:02:49;;;;;;;23.65;11.77;;;;;;;;;;5053388;28;20037;-68
2022/01/19 11:05:15;;;;;;;26.63;11.07;;;;;;;;;;5042773;28;20364;-68
2022/01/19 11:07:41;;;;;;;32.10;15.48;;;;;;;;;;5041124;28;20067;-70
2022/01/19 11:10:21;;;;;;;21.45;10.25;;;;;;;;;;5036763;28;20451;-70
2022/01/19 11:12:53;;;;;;;22.33;10.55;;;;;;;;;;5052017;28;20091;-70
2022/01/19 11:15:19;;;;;;;25.33;12.35;;;;;;;;;;5055550;28;20449;-71
2022/01/19 11:17:46;;;;;;;32.83;13.82;;;;;;;;;;5073154;28;20025;-66
2022/01/19 11:20:17;;;;;;;30.08;13.80;;;;;;;;;;5063646;28;20040;-69
2022/01/19 11:23:02;;;;;;;29.52;14.25;;;;;;;;;;5039742;28;20029;-67
2022/01/19 11:25:50;;;;;;;18.90;10.05;;;;;;;;;;5056079;28;20029;-66
2022/01/19 11:28:28;;;;;;;26.42;12.98;;;;;;;;;;5052514;28;20040;-69
2022/01/19 11:30:54;;;;;;;21.63;10.35;;;;;;;;;;5052961;28;20033;-68
2022/01/19 11:33:26;;;;;;;21.35;10.23;;;;;;;;;;5051476;28;20036;-68
2022/01/19 11:35:58;;;;;;;27.95;12.80;;;;;;;;;;5052787;28;20083;-67
2022/01/19 11:38:31;;;;;;;19.95;10.93;;;;;;;;;;5050626;28;20032;-68
2022/01/19 11:40:57;;;;;;;16.08;9.38;;;;;;;;;;5062285;28;20116;-70
2022/01/19 11:43:28;;;;;;;26.17;13.43;;;;;;;;;;5051162;28;20040;-68
2022/01/19 11:45:54;;;;;;;;;;;;;;;;;;5035507;28;20060;-71
2022/01/19 11:48:25;;;;;;;19.40;9.52;;;;;;;;;;5051639;28;20286;-71
2022/01/19 11:50:51;;;;;;;;;;;;;;;;;;5052631;28;20441;-67
2022/01/19 11:53:18;;;;;;;23.95;11.45;;;;;;;;;;5052545;28;19912;-71
2022/01/19 11:56:06;;;;;;;25.88;12.25;;;;;;;;;;5068127;28;20039;-70
2022/01/19 11:58:32;;;;;;;24.77;12.43;;;;;;;;;;5048380;28;20165;-68
2022/01/19 12:00:58;;;;;;;24.95;13.32;;;;;;;;;;5051881;28;20041;-68
2022/01/19 12:03:30;;;;;;;25.85;12.40;;;;;;;;;;5050946;28;20032;-68
2022/01/19 12:05:56;;;;;;;24.48;12.32;;;;;;;;;;5039512;28;20073;-70
2022/01/19 12:08:36;;;;;;;14.43;8.43;;;;;;;;;;5049665;28;20067;-70
2022/01/19 12:11:18;;;;;;;25.42;12.38;;;;;;;;;;5064590;28;20036;-70
2022/01/19 12:16:20;;;;;;;21.48;11.35;;;;;;;;;;5059411;28;20056;-69
2022/01/19 12:18:54;;;;;;;21.73;11.93;;;;;;;;;;5035439;28;20037;-70
2022/01/19 12:21:32;;;;;;;25.10;12.98;;;;;;;;;;5030003;28;20029;-70
2022/01/19 12:24:12;;;;;;;19.80;9.02;;;;;;;;;;5031842;28;20040;-67
2022/01/19 12:27:17;;;;;;;20.65;9.98;;;;;;;;;;5066751;28;20087;-70
2022/01/19 12:30:08;;;;;;;19.85;10.60;;;;;;;;;;5054945;28;20047;-69
2022/01/19 12:32:43;;;;;;;19.63;9.20;;;;;;;;;;5066950;28;20968;-68
2022/01/19 12:35:23;;;;;;;22.75;12.07;;;;;;;;;;5039615;28;20056;-66
2022/01/19 12:37:52;;;;;;;17.42;9.23;;;;;;;;;;5041913;28;20086;-68
2022/01/19 12:40:18;;;;;;;16.58;8.95;;;;;;;;;;5050526;28;20114;-70
2022/01/19 12:42:46;;;;;;;26.88;12.32;;;;;;;;;;5052735;28;20471;-72
2022/01/19 12:45:29;;;;;;;22.25;11.07;;;;;;;;;;5051348;28;20032;-68
2022/01/19 12:47:56;;;;;;;19.92;10.38;;;;;;;;;;5067775;28;20374;-70
2022/01/19 12:50:21;;;;;;;19.55;9.65;;;;;;;;;;5032409;28;20034;-70
2022/01/19 12:52:55;;;;;;;22.77;12.20;;;;;;;;;;5047920;28;20043;-71
2022/01/19 12:55:22;;;;;;;22.70;10.77;;;;;;;;;;5050589;28;20043;-71
2022/01/19 12:57:48;;;;;;;17.00;9.68;;;;;;;;;;5067487;28;20033;-71
2022/01/19 13:00:20;;;;;;;18.38;10.15;;;;;;;;;;5065482;28;20522;-69
2022/01/19 13:02:45;;;;;;;23.52;12.55;;;;;;;;;;5050215;28;20104;-71
2022/01/19 13:05:15;;;;;;;25.35;10.38;;;;;;;;;;5031571;28;20419;-71
2022/01/19 13:07:55;;;;;;;18.10;9.80;;;;;;;;;;5035052;28;20044;-71
2022/01/19 13:10:52;;;;;;;22.98;12.60;;;;;;;;;;5052736;28;20095;-71
2022/01/19 13:15:47;;;;;;;25.85;11.70;;;;;;;;;;5054609;28;20071;-67
2022/01/19 13:18:35;;;;;;;25.23;12.02;;;;;;;;;;5055800;28;20090;-68
2022/01/19 13:21:17;;;;;;;22.73;11.52;;;;;;;;;;5049325;28;20036;-69
2022/01/19 13:24:18;;;;;;;18.95;9.75;;;;;;;;;;5054619;28;20037;-69
2022/01/19 13:26:54;;;;;;;17.92;9.30;;;;;;;;;;5061725;28;20037;-70
2022/01/19 13:29:42;;;;;;;19.02;10.15;;;;;;;;;;5055106;28;20037;-71
2022/01/19 13:32:12;;;;;;;21.77;11.02;;;;;;;;;;5046587;28;20033;-71
2022/01/19 13:35:00;;;;;;;22.25;11.40;;;;;;;;;;5042655;28;20034;-71
2022/01/19 13:37:41;;;;;;;20.25;10.50;;;;;;;;;;5041893;28;20033;-70
2022/01/19 13:40:10;;;;;;;21.42;10.48;;;;;;;;;;5053264;28;20098;-71
2022/01/19 13:42:41;;;;;;;26.02;13.50;;;;;;;;;;5057853;28;20124;-71
2022/01/19 13:48:19;;;;;;;19.73;10.45;;;;;;;;;;5064758;28;20052;-70
2022/01/19 13:50:56;;;;;;;22.10;10.02;;;;;;;;;;5035012;28;20029;-69
2022/01/19 13:53:49;;;;;;;23.45;11.23;;;;;;;;;;5053395;28;20033;-70
2022/01/19 13:56:31;;;;;;;22.27;10.75;;;;;;;;;;5055251;28;20036;-69
2022/01/19 13:58:58;;;;;;;19.80;10.13;;;;;;;;;;5052271;28;20029;-70
2022/01/19 14:01:36;;;;;;;24.10;10.75;;;;;;;;;;5038543;28;20029;-72
2022/01/19 14:04:07;;;;;;;19.20;9.23;;;;;;;;;;5054058;28;20025;-70
2022/01/19 14:06:32;;;;;;;22.80;11.18;;;;;;;;;;5053170;28;20139;-70
2022/01/19 14:09:18;;;;;;;23.73;11.85;;;;;;;;;;5052566;28;20123;-69
2022/01/19 14:11:45;;;;;;;21.30;11.65;;;;;;;;;;5065387;28;20032;-71
2022/01/19 14:14:21;;;;;;;30.05;14.65;;;;;;;;;;5073904;28;20458;-72
2022/01/19 14:16:49;;;;;;;25.67;13.48;;;;;;;;;;5057444;28;20463;-70
2022/01/19 14:19:23;;;;;;;20.33;10.85;;;;;;;;;;5032484;28;20035;-68
2022/01/19 14:22:05;;;;;;;22.92;11.85;;;;;;;;;;5057183;28;20037;-68
2022/01/19 14:24:49;;;;;;;31.05;14.48;;;;;;;;;;5061294;28;20029;-72
2022/01/19 14:27:24;;;;;;;20.77;10.52;;;;;;;;;;5057016;28;20037;-68
2022/01/19 14:30:06;;;;;;;25.02;12.27;;;;;;;;;;5073168;28;20108;-68
2022/01/19 14:32:40;;;;;;;27.10;14.02;;;;;;;;;;5071110;28;21362;-71
2022/01/19 14:35:31;;;;;;;26.52;14.27;;;;;;;;;;5062279;28;20090;-70
2022/01/19 14:38:48;;;;;;;25.15;13.32;;;;;;;;;;5067940;28;20095;-68
2022/01/19 14:41:18;;;;;;;25.98;11.85;;;;;;;;;;5079160;28;20180;-70
2022/01/19 14:44:00;;;;;;;18.83;11.33;;;;;;;;;;5077441;28;20036;-68
2022/01/19 14:47:07;;;;;;;19.73;10.15;;;;;;;;;;5073704;28;20085;-70
2022/01/19 14:49:35;;;;;;;21.67;10.23;;;;;;;;;;5090339;28;20028;-68
2022/01/19 14:52:01;;;;;;;26.02;13.15;;;;;;;;;;5047441;28;20055;-69
2022/01/19 14:54:26;;;;;;;30.05;14.40;;;;;;;;;;5073275;28;20039;-69
2022/01/19 14:56:52;;;;;;;30.73;14.95;;;;;;;;;;5089190;28;20035;-71
2022/01/19 14:59:20;;;;;;;29.77;14.80;;;;;;;;;;5090502;28;20456;-70
2022/01/19 15:01:58;;;;;;;23.73;12.68;;;;;;;;;;5077163;28;20127;-70
2022/01/19 15:04:24;;;;;;;32.85;15.18;;;;;;;;;;5051205;28;20068;-73
2022/01/19 15:06:49;;;;;;;28.75;15.40;;;;;;;;;;5050657;28;20597;-68
2022/01/19 15:09:17;;;;;;;40.15;17.48;;;;;;;;;;5061214;28;20128;-69
2022/01/19 15:11:43;;;;;;;40.47;18.65;;;;;;;;;;5061013;28;20060;-70
2022/01/19 15:14:09;;;;;;;36.10;16.02;;;;;;;;;;5035051;28;20048;-72
2022/01/19 15:16:35;;;;;;;33.90;13.75;;;;;;;;;;5032387;28;20053;-71
2022/01/19 15:19:01;;;;;;;26.95;13.23;;;;;;;;;;5037447;28;20097;-72
2022/01/19 15:21:27;;;;;;;36.47;13.15;;;;;;;;;;5071609;28;20028;-72
2022/01/19 15:23:53;;;;;;;38.33;17.45;;;;;;;;;;5072142;28;20056;-72
2022/01/19 15:26:19;;;;;;;48.22;20.00;;;;;;;;;;5072236;28;20044;-72
2022/01/19 15:28:46;;;;;;;45.15;19.52;;;;;;;;;;5051937;28;20155;-73
2022/01/19 15:31:12;;;;;;;36.80;18.02;;;;;;;;;;5052057;28;20033;-70
2022/01/19 15:33:39;;;;;;;33.72;15.95;;;;;;;;;;5052732;28;20032;-68
2022/01/19 15:36:07;;;;;;;46.05;18.33;;;;;;;;;;5052615;28;20037;-72
2022/01/19 15:38:34;;;;;;;55.13;21.23;;;;;;;;;;5052794;28;20040;-72
2022/01/19 15:40:59;;;;;;;41.92;18.88;;;;;;;;;;5056562;28;20036;-68
2022/01/19 15:43:25;;;;;;;58.13;23.27;;;;;;;;;;5038077;28;20030;-71
2022/01/19 15:45:50;;;;;;;36.33;17.83;;;;;;;;;;5038889;28;20024;-71
2022/01/19 15:48:17;;;;;;;39.28;17.55;;;;;;;;;;5054457;28;20032;-73
2022/01/19 15:50:50;;;;;;;55.33;22.23;;;;;;;;;;5070988;28;20028;-73
2022/01/19 15:53:17;;;;;;;52.78;21.15;;;;;;;;;;5072679;28;20473;-73
2022/01/19 15:55:43;;;;;;;58.13;22.65;;;;;;;;;;5070326;28;20024;-72
2022/01/19 15:58:08;;;;;;;51.83;20.60;;;;;;;;;;5055288;28;20427;-75
2022/01/19 16:00:35;;;;;;;58.00;22.05;;;;;;;;;;5032898;28;20040;-74
2022/01/19 16:03:04;;;;;;;51.03;19.88;;;;;;;;;;5045222;28;20032;-76